Terminal Aerodrome Forecast
Issued by NWS

Home | Current Version | Previous Version | Text Only | Print | Product List | Glossary Off
Versions: 1 2 3 4 5 6 7 8 9 10 11 12 13 14 15 16

000
FTUS43 KBIS 231000 AAB
TAFJMS
TAF AMD
KJMS 231025Z 2310/2406 12022G28KT P6SM -SHRA BKN045 OVC070
      TEMPO 2310/2313 5SM -SHRA SCT012 BKN035
     FM231400 13027G35KT P6SM VCSH SCT040 OVC080
     FM232100 13020G27KT P6SM -SHRA SCT020 OVC045
     FM240100 13015G23KT P6SM -SHRA OVC025=

USA.gov is the U.S. government's official web portal to all federal, state and local government web resources and services.